createdAt,value
2017-08-20T00:03:47.623Z,"    0"
2017-08-20T00:08:44.508Z,"    0"
2017-08-20T00:13:39.899Z,"    0"
2017-08-20T00:18:35.517Z,"    0"
2017-08-20T00:23:31.683Z,"    0"
2017-08-20T00:28:27.595Z,"    0"
2017-08-20T00:33:24.061Z,"    0"
2017-08-20T00:38:20.779Z,"    0"
2017-08-20T00:43:17.330Z,"    0"
2017-08-20T00:48:13.291Z,"    0"
2017-08-20T00:53:10.076Z,"    0"
2017-08-20T00:58:05.363Z,"    0"
2017-08-20T01:03:02.722Z,"    0"
2017-08-20T01:07:58.053Z,"    0"
2017-08-20T01:12:53.997Z,"    0"
2017-08-20T01:17:49.743Z,"    0"
2017-08-20T01:22:45.920Z,"    0"
2017-08-20T01:27:43.018Z,"    0"
2017-08-20T01:32:39.423Z,"    0"
2017-08-20T01:37:35.218Z,"    0"
2017-08-20T01:42:30.839Z,"    0"
2017-08-20T01:47:27.122Z,"    0"
2017-08-20T01:52:24.144Z,"    0"
2017-08-20T01:57:19.667Z,"    0"
2017-08-20T02:02:15.830Z,"    0"
2017-08-20T02:07:11.529Z,"    0"
2017-08-20T02:12:08.652Z,"    0"
2017-08-20T02:17:04.244Z,"    0"
2017-08-20T02:22:00.062Z,"    0"
2017-08-20T02:26:56.811Z,"    0"
2017-08-20T02:31:53.496Z,"    0"
2017-08-20T02:36:49.285Z,"    0"
2017-08-20T02:41:45.312Z,"    0"
2017-08-20T02:46:41.176Z,"    0"
2017-08-20T02:51:37.222Z,"    0"
2017-08-20T02:56:32.894Z,"    0"
2017-08-20T03:01:29.921Z,"    0"
2017-08-20T03:06:25.478Z,"    0"
2017-08-20T03:11:21.373Z,"    0"
2017-08-20T03:16:17.314Z,"    0"
2017-08-20T03:21:13.355Z,"    0"
2017-08-20T03:26:09.124Z,"    0"
2017-08-20T03:31:05.402Z,"    0"
2017-08-20T03:36:01.297Z,"    0"
2017-08-20T03:40:57.335Z,"    0"
2017-08-20T03:45:53.190Z,"    0"
2017-08-20T03:50:48.991Z,"    0"
2017-08-20T03:55:44.576Z,"    0"
2017-08-20T04:00:40.686Z,"    0"
2017-08-20T04:05:36.488Z,"    0"
2017-08-20T04:10:34.212Z,"    0"
2017-08-20T04:15:29.482Z,"    0"
2017-08-20T04:20:25.494Z,"    0"
2017-08-20T04:25:21.336Z,"    0"
2017-08-20T04:30:18.212Z,"    5"
2017-08-20T04:35:14.549Z,"    5"
2017-08-20T04:40:10.522Z,"   10"
2017-08-20T04:45:06.437Z,"   15"
2017-08-20T04:50:02.386Z,"   15"
2017-08-20T04:54:58.755Z,"   20"
2017-08-20T04:59:54.714Z,"   25"
2017-08-20T05:04:51.130Z,"   30"
2017-08-20T05:09:47.186Z,"   35"
2017-08-20T05:14:43.104Z,"   35"
2017-08-20T05:19:38.910Z,"   45"
2017-08-20T05:24:34.791Z,"   55"
2017-08-20T05:29:30.697Z,"   55"
2017-08-20T05:34:26.479Z,"   65"
2017-08-20T05:39:22.343Z,"   70"
2017-08-20T05:44:18.282Z,"   65"
2017-08-20T05:49:15.089Z,"   50"
2017-08-20T05:54:12.741Z,"   60"
2017-08-20T05:59:09.009Z,"   65"
2017-08-20T06:04:05.867Z,"   75"
2017-08-20T06:09:01.852Z,"  110"
2017-08-20T06:13:57.856Z,"  145"
2017-08-20T06:18:53.964Z,"  135"
2017-08-20T06:23:49.996Z,"  120"
2017-08-20T06:28:45.862Z,"  110"
2017-08-20T06:33:41.857Z,"  120"
2017-08-20T06:38:37.706Z,"  135"
2017-08-20T06:43:33.539Z,"  145"
2017-08-20T06:48:30.671Z,"  170"
2017-08-20T06:53:26.716Z,"  145"
2017-08-20T06:58:23.841Z,"  160"
2017-08-20T07:03:19.837Z,"  190"
2017-08-20T07:08:16.276Z,"  150"
2017-08-20T07:13:11.883Z,"  175"
2017-08-20T07:18:08.040Z,"  185"
2017-08-20T07:23:04.941Z,"  300"
2017-08-20T07:28:00.794Z,"  295"
2017-08-20T07:32:57.320Z,"  295"
2017-08-20T07:37:53.427Z,"  640"
2017-08-20T07:42:50.413Z,"  390"
2017-08-20T07:47:46.572Z,"  460"
2017-08-20T07:52:42.773Z,"  355"
2017-08-20T07:57:39.534Z,"  250"
2017-08-20T08:02:35.377Z,"  290"
2017-08-20T08:07:31.953Z,"  155"
2017-08-20T08:12:28.137Z,"  615"
2017-08-20T08:17:25.827Z," 1030"
2017-08-20T08:22:23.198Z,"  210"
2017-08-20T08:27:19.291Z,"  955"
2017-08-20T08:32:15.947Z,"  695"
2017-08-20T08:37:13.567Z,"  505"
2017-08-20T08:42:08.330Z,"  280"
2017-08-20T08:47:03.479Z,"  350"
2017-08-20T08:51:58.801Z,"  310"
2017-08-20T08:56:54.208Z,"  305"
2017-08-20T09:01:49.399Z,"  285"
2017-08-20T09:06:45.027Z,"  395"
2017-08-20T09:11:41.472Z,"  270"
2017-08-20T09:16:37.094Z,"  245"
2017-08-20T09:21:33.134Z,"  275"
2017-08-20T09:26:29.014Z,"  410"
2017-08-20T09:31:26.181Z,"  320"
2017-08-20T09:36:21.984Z,"  325"
2017-08-20T09:41:17.938Z,"  250"
2017-08-20T09:46:14.113Z,"  540"
2017-08-20T09:51:09.926Z,"  260"
2017-08-20T09:56:06.668Z,"  295"
2017-08-20T10:01:04.109Z," 1185"
2017-08-20T10:06:02.033Z,"  685"
2017-08-20T10:10:59.628Z,"  595"
2017-08-20T10:16:03.726Z,"  205"
2017-08-20T10:20:57.220Z,"  165"
2017-08-20T10:25:52.208Z,"  245"
2017-08-20T10:30:49.207Z,"  260"
2017-08-20T10:35:44.351Z,"  200"
2017-08-20T10:40:39.566Z,"  285"
2017-08-20T10:45:35.393Z,"  265"
2017-08-20T10:50:31.767Z,"  290"
2017-08-20T10:55:27.730Z,"  385"
2017-08-20T11:00:24.124Z,"  410"
2017-08-20T11:05:20.501Z,"  340"
2017-08-20T11:10:16.357Z,"  555"
2017-08-20T11:15:14.003Z," 1705"
2017-08-20T11:20:12.480Z," 1610"
2017-08-20T11:25:10.586Z," 1515"
2017-08-20T11:30:07.905Z," 1600"
2017-08-20T11:35:03.080Z,"  180"
2017-08-20T11:39:56.791Z,"  205"
2017-08-20T11:44:51.682Z,"  460"
2017-08-20T11:49:51.626Z," 1645"
2017-08-20T11:54:49.282Z," 1620"
2017-08-20T11:59:46.077Z," 1065"
2017-08-20T12:04:42.464Z," 1645"
2017-08-20T12:09:39.005Z," 1240"
2017-08-20T12:14:33.672Z,"  625"
2017-08-20T12:19:29.582Z," 1195"
2017-08-20T12:24:24.470Z,"  360"
2017-08-20T12:29:19.387Z,"  450"
2017-08-20T12:34:14.717Z,"  375"
2017-08-20T12:39:09.794Z,"  130"
2017-08-20T12:44:04.768Z,"  170"
2017-08-20T12:48:59.994Z,"  360"
2017-08-20T12:53:56.917Z," 1365"
2017-08-20T12:58:52.912Z,"  485"
2017-08-20T13:03:48.006Z,"  220"
2017-08-20T13:08:43.076Z,"  260"
2017-08-20T13:13:38.876Z,"  290"
2017-08-20T13:18:35.524Z,"  260"
2017-08-20T13:23:32.113Z,"  295"
2017-08-20T13:28:28.462Z,"  370"
2017-08-20T13:33:24.301Z,"  365"
2017-08-20T13:38:20.581Z,"  365"
2017-08-20T13:43:16.903Z,"  325"
2017-08-20T13:48:12.827Z,"  295"
2017-08-20T13:53:08.866Z,"  300"
2017-08-20T13:58:06.084Z,"  330"
2017-08-20T14:03:02.525Z,"  190"
2017-08-20T14:07:57.859Z,"  115"
2017-08-20T14:12:53.410Z,"   55"
2017-08-20T14:17:49.165Z,"   75"
2017-08-20T14:22:45.742Z,"  145"
2017-08-20T14:27:41.284Z,"  195"
2017-08-20T14:32:37.532Z,"  230"
2017-08-20T14:37:34.849Z,"  210"
2017-08-20T14:42:30.364Z,"  240"
2017-08-20T14:47:26.278Z,"  185"
2017-08-20T14:52:22.442Z,"  120"
2017-08-20T14:57:18.071Z,"  145"
2017-08-20T15:02:13.659Z,"   90"
2017-08-20T15:07:09.266Z,"   25"
2017-08-20T15:12:05.811Z,"   25"
2017-08-20T15:17:02.211Z,"   30"
2017-08-20T15:21:58.092Z,"   50"
2017-08-20T15:26:53.575Z,"   65"
2017-08-20T15:31:49.450Z,"   90"
2017-08-20T15:36:46.400Z,"  105"
2017-08-20T15:41:42.149Z,"  130"
2017-08-20T15:46:38.101Z,"  165"
2017-08-20T15:51:34.404Z,"  170"
2017-08-20T15:56:30.120Z,"  120"
2017-08-20T16:01:26.735Z,"   65"
2017-08-20T16:06:22.255Z,"   85"
2017-08-20T16:11:18.053Z,"  105"
2017-08-20T16:16:14.079Z,"  105"
2017-08-20T16:21:09.834Z,"  110"
2017-08-20T16:26:06.731Z,"  105"
2017-08-20T16:31:03.640Z,"   85"
2017-08-20T16:35:59.160Z,"   90"
2017-08-20T16:40:55.316Z,"  100"
2017-08-20T16:45:52.283Z,"   95"
2017-08-20T16:50:47.846Z,"   85"
2017-08-20T16:55:43.834Z,"   80"
2017-08-20T17:00:39.882Z,"   75"
2017-08-20T17:05:36.722Z,"   70"
2017-08-20T17:10:32.199Z,"   65"
2017-08-20T17:15:29.033Z,"   60"
2017-08-20T17:20:26.557Z,"   50"
2017-08-20T17:25:21.987Z,"   45"
2017-08-20T17:30:17.692Z,"   50"
2017-08-20T17:35:15.640Z,"   45"
2017-08-20T17:40:12.041Z,"   40"
2017-08-20T17:45:08.446Z,"   35"
2017-08-20T17:50:04.419Z,"   30"
2017-08-20T17:55:00.532Z,"   25"
2017-08-20T17:59:56.555Z,"   20"
2017-08-20T18:04:52.451Z,"   15"
2017-08-20T18:09:49.282Z,"   15"
2017-08-20T18:14:44.935Z,"   10"
2017-08-20T18:19:40.551Z,"   10"
2017-08-20T18:24:37.264Z,"    5"
2017-08-20T18:29:32.694Z,"    5"
2017-08-20T18:34:28.375Z,"    0"
2017-08-20T18:39:25.104Z,"    0"
2017-08-20T18:44:21.820Z,"    0"
2017-08-20T18:49:17.374Z,"    0"
2017-08-20T18:54:13.211Z,"    0"
2017-08-20T18:59:09.747Z,"    0"
2017-08-20T19:04:05.473Z,"    0"
2017-08-20T19:09:02.210Z,"    0"
2017-08-20T19:13:58.189Z,"    0"
2017-08-20T19:18:55.368Z,"    0"
2017-08-20T19:23:52.121Z,"    0"
2017-08-20T19:28:49.424Z,"    0"
2017-08-20T19:33:45.835Z,"    0"
2017-08-20T19:38:43.344Z,"    0"
2017-08-20T19:43:38.448Z,"    0"
2017-08-20T19:48:34.229Z,"    0"
2017-08-20T19:53:29.880Z,"    0"
2017-08-20T19:58:26.066Z,"    0"
2017-08-20T20:03:23.078Z,"    0"
2017-08-20T20:08:19.111Z,"    0"
2017-08-20T20:13:14.979Z,"    0"
2017-08-20T20:18:10.548Z,"    0"
2017-08-20T20:23:07.988Z,"    0"
2017-08-20T20:28:03.288Z,"    0"
2017-08-20T20:32:59.046Z,"    0"
2017-08-20T20:37:54.976Z,"    0"
2017-08-20T20:42:50.642Z,"    0"
2017-08-20T20:47:47.365Z,"    0"
2017-08-20T20:52:42.890Z,"    0"
2017-08-20T20:57:38.622Z,"    0"
2017-08-20T21:02:34.444Z,"    0"
2017-08-20T21:07:30.602Z,"    0"
2017-08-20T21:12:26.320Z,"    0"
2017-08-20T21:17:22.107Z,"    0"
2017-08-20T21:22:17.666Z,"    0"
2017-08-20T21:27:13.942Z,"    0"
2017-08-20T21:32:09.439Z,"    0"
2017-08-20T21:37:05.706Z,"    0"
2017-08-20T21:42:01.749Z,"    0"
2017-08-20T21:46:57.611Z,"    0"
2017-08-20T21:51:53.844Z,"    0"
2017-08-20T21:56:50.638Z,"    0"
2017-08-20T22:01:47.038Z,"    0"
2017-08-20T22:06:43.867Z,"    0"
2017-08-20T22:11:39.538Z,"    0"
2017-08-20T22:16:35.259Z,"    0"
2017-08-20T22:21:31.085Z,"    0"
2017-08-20T22:26:27.082Z,"    0"
2017-08-20T22:31:22.667Z,"    0"
2017-08-20T22:36:18.426Z,"    0"
2017-08-20T22:41:14.037Z,"    0"
2017-08-20T22:46:10.775Z,"    0"
2017-08-20T22:51:07.053Z,"    0"
2017-08-20T22:56:04.258Z,"    0"
2017-08-20T23:01:00.286Z,"    0"
2017-08-20T23:05:56.038Z,"    0"
2017-08-20T23:10:51.608Z,"    0"
2017-08-20T23:15:47.532Z,"    0"
2017-08-20T23:20:44.354Z,"    0"
2017-08-20T23:25:39.834Z,"    0"
2017-08-20T23:30:35.993Z,"    0"
2017-08-20T23:35:31.796Z,"    0"
2017-08-20T23:40:28.135Z,"    0"
2017-08-20T23:45:23.977Z,"    0"
2017-08-20T23:50:19.416Z,"    0"
2017-08-20T23:55:15.559Z,"    0"
